Rugby, North Dakota
Current Conditions -  °F | °C
As of 4:15 AM on Thursday 23 Oct 2014 (Local Time) from KRUG Reporting Station
Clear Clear  
Wind Chill: 37°   Ceiling: Unl
Heat Index: 41°   Visibility: 10mi
Dew Point: 37°   Wind: 6mph
Humidity: 87%   Direction: 240°WSW
Pressure: 29.82"   Gusts: NA
Location:  48.37°N, 100°W
Report Text: KRUG 230915Z AUTO 24005KT 10SM CLR 05/03 A2982 RMK AO2
Loading
Personal Weather Stations






























Interactive Weather Map
Tropical Storm Tracking
New forecast layout! Learn more

10-Day Weather Forecast

Advertisements
Track Severe Weather on mobile